createdAt,value
2019-05-11T00:00:34.907Z,101188.69
2019-05-11T00:03:04.168Z,101188.28
2019-05-11T00:05:33.394Z,101190.52
2019-05-11T00:08:02.579Z,101187.47
2019-05-11T00:10:32.305Z,101190.52
2019-05-11T00:13:04.266Z,101184.83
2019-05-11T00:15:33.493Z,101185.30
2019-05-11T00:18:15.401Z,101187.50
2019-05-11T00:20:44.634Z,101187.94
2019-05-11T00:23:14.538Z,101193.67
2019-05-11T00:25:43.877Z,101189.75
2019-05-11T00:28:13.179Z,101195.45
2019-05-11T00:30:42.092Z,101197.24
2019-05-11T00:33:25.293Z,101194.14
2019-05-11T00:35:54.239Z,101189.75
2019-05-11T00:38:23.129Z,101186.23
2019-05-11T00:40:52.002Z,101191.06
2019-05-11T00:43:21.199Z,101193.73
2019-05-11T00:45:50.257Z,101196.80
2019-05-11T00:48:19.495Z,101193.72
2019-05-11T00:50:48.764Z,101180.55
2019-05-11T00:54:17.172Z,101190.24
2019-05-11T00:56:46.310Z,101188.06
2019-05-11T00:59:21.867Z,101176.66
2019-05-11T01:06:05.626Z,101173.61
2019-05-11T01:08:32.275Z,101173.20
2019-05-11T01:11:35.369Z,101171.03
2019-05-11T01:14:04.516Z,101167.05
2019-05-11T01:16:34.003Z,101169.72
2019-05-11T01:19:28.432Z,101167.94
2019-05-11T01:21:57.599Z,101167.04
2019-05-11T01:24:26.651Z,101167.95
2019-05-11T01:26:55.838Z,101165.30
2019-05-11T01:29:25.302Z,101167.08
2019-05-11T01:32:08.421Z,101166.64
2019-05-11T01:34:34.929Z,101168.40
2019-05-11T01:37:04.025Z,101165.33
2019-05-11T01:39:33.732Z,101164.46
2019-05-11T01:42:03.329Z,101166.67
2019-05-11T01:44:32.676Z,101169.77
2019-05-11T01:47:01.765Z,101168.42
2019-05-11T01:49:31.045Z,101168.00
2019-05-11T01:52:00.310Z,101164.03
2019-05-11T01:54:29.307Z,101166.68
2019-05-11T01:56:58.880Z,101166.25
2019-05-11T01:59:27.904Z,101167.14
2019-05-11T02:01:57.914Z,101161.42
2019-05-11T02:04:27.563Z,101168.45
2019-05-11T02:06:56.512Z,101173.72
2019-05-11T02:09:25.724Z,101179.43
2019-05-11T02:11:54.758Z,101172.41
2019-05-11T02:14:23.891Z,101174.15
2019-05-11T02:16:53.814Z,101176.80
2019-05-11T02:19:23.308Z,101171.95
2019-05-11T02:21:52.527Z,101171.52
2019-05-11T02:24:21.786Z,101169.32
2019-05-11T02:26:51.308Z,101163.65
2019-05-11T02:29:20.660Z,101166.72
2019-05-11T02:31:49.671Z,101163.63
2019-05-11T02:34:18.713Z,101164.50
2019-05-11T02:36:48.510Z,101167.57
2019-05-11T02:39:25.640Z,101163.63
2019-05-11T02:41:56.417Z,101170.22
2019-05-11T02:44:49.582Z,101172.84
2019-05-11T02:47:26.363Z,101178.54
2019-05-11T02:49:57.756Z,101177.22
2019-05-11T02:52:28.748Z,101182.06
2019-05-11T02:55:00.290Z,101186.00
2019-05-11T02:57:29.680Z,101180.72
2019-05-11T02:59:58.938Z,101185.11
2019-05-11T03:02:28.950Z,101190.81
2019-05-11T03:04:58.257Z,101186.42
2019-05-11T03:07:27.709Z,101186.88
2019-05-11T03:09:56.994Z,101195.60
2019-05-11T03:12:26.442Z,101196.03
2019-05-11T03:14:55.731Z,101192.52
2019-05-11T03:17:29.754Z,101190.36
2019-05-11T03:19:59.022Z,101185.97
2019-05-11T03:22:28.601Z,101190.31
2019-05-11T03:24:57.572Z,101194.72
2019-05-11T03:27:27.255Z,101184.62
2019-05-11T03:30:00.870Z,101178.49
2019-05-11T03:32:27.909Z,101184.20
2019-05-11T03:34:57.412Z,101191.22
2019-05-11T03:37:26.448Z,101183.77
2019-05-11T03:39:55.531Z,101184.66
2019-05-11T03:42:24.515Z,101184.64
2019-05-11T03:44:54.771Z,101191.62
2019-05-11T03:47:24.262Z,101186.37
2019-05-11T03:49:53.493Z,101192.06
2019-05-11T03:52:23.008Z,101192.92
2019-05-11T03:54:52.529Z,101194.23
2019-05-11T03:57:21.945Z,101201.70
2019-05-11T03:59:50.975Z,101202.13
2019-05-11T04:02:19.982Z,101213.09
2019-05-11T04:04:48.903Z,101217.46
2019-05-11T04:07:17.926Z,101224.48
2019-05-11T04:09:46.896Z,101220.10
2019-05-11T04:12:33.286Z,101231.09
2019-05-11T04:14:48.933Z,101228.48
2019-05-11T04:17:18.335Z,101234.63
2019-05-11T04:19:47.439Z,101243.37
2019-05-11T04:22:16.766Z,101247.36
2019-05-11T04:24:46.048Z,101254.80
2019-05-11T04:27:19.471Z,101248.25
2019-05-11T04:29:46.450Z,101251.73
2019-05-11T04:32:15.766Z,101253.53
2019-05-11T04:34:44.783Z,101249.99
2019-05-11T04:37:13.699Z,101253.53
2019-05-11T04:39:42.628Z,101250.47
2019-05-11T04:42:12.006Z,101243.02
2019-05-11T04:44:41.244Z,101240.83
2019-05-11T04:47:10.269Z,101240.84
2019-05-11T04:49:39.738Z,101239.98
2019-05-11T04:52:08.776Z,101242.58
2019-05-11T04:54:37.644Z,101244.78
2019-05-11T04:57:07.156Z,101241.72
2019-05-11T04:59:36.355Z,101242.59
2019-05-11T05:02:05.298Z,101244.78
2019-05-11T05:04:34.378Z,101245.20
2019-05-11T05:07:05.378Z,101242.55
2019-05-11T05:09:42.948Z,101239.84
2019-05-11T05:12:13.639Z,101244.20
2019-05-11T05:14:39.558Z,101239.73
2019-05-11T05:17:08.554Z,101244.92
2019-05-11T05:19:37.727Z,101243.09
2019-05-11T05:22:06.772Z,101245.26
2019-05-11T05:24:36.039Z,101246.58
2019-05-11T05:27:05.396Z,101242.62
2019-05-11T05:29:34.640Z,101247.02
2019-05-11T05:32:04.083Z,101250.50
2019-05-11T05:34:33.080Z,101251.81
2019-05-11T05:37:02.400Z,101253.54
2019-05-11T05:39:31.705Z,101255.70
2019-05-11T05:42:00.880Z,101253.94
2019-05-11T05:44:29.965Z,101256.13
2019-05-11T05:46:59.392Z,101264.89
2019-05-11T05:49:28.423Z,101261.38
2019-05-11T05:51:58.531Z,101267.09
2019-05-11T05:54:27.804Z,101274.09
2019-05-11T05:56:57.178Z,101269.69
2019-05-11T05:59:26.375Z,101268.38
2019-05-11T06:01:55.511Z,101271.01
2019-05-11T06:04:25.037Z,101277.56
2019-05-11T06:06:53.965Z,101277.52
2019-05-11T06:09:23.205Z,101277.87
2019-05-11T06:11:52.234Z,101272.53
2019-05-11T06:14:21.802Z,101277.23
2019-05-11T06:16:51.045Z,101283.22
2019-05-11T06:19:20.020Z,101281.21
2019-05-11T06:21:49.694Z,101287.94
2019-05-11T06:24:19.159Z,101284.80
2019-05-11T06:26:48.415Z,101289.11
2019-05-11T06:29:21.296Z,101292.97
2019-05-11T06:31:48.541Z,101296.41
2019-05-11T06:34:18.130Z,101299.38
2019-05-11T06:36:47.496Z,101298.31
2019-05-11T06:39:16.424Z,101303.98
2019-05-11T06:41:45.424Z,101305.23
2019-05-11T06:44:14.538Z,101304.14
2019-05-11T06:46:44.224Z,101296.76
2019-05-11T06:49:13.192Z,101298.11
2019-05-11T06:51:44.978Z,101289.33
2019-05-11T06:56:43.412Z,101288.13
2019-05-11T06:59:12.700Z,101288.13
2019-05-11T07:58:58.273Z,101306.92
2019-05-11T18:49:17.721Z,101306.92
2019-05-11T18:51:52.209Z,101306.92
2019-05-11T18:54:22.369Z,101810.20
2019-05-11T18:56:51.862Z,101811.31
2019-05-11T18:59:21.062Z,101814.28
2019-05-11T19:01:50.357Z,101827.77
2019-05-11T19:04:19.955Z,101827.02
2019-05-11T19:06:49.033Z,101838.86
2019-05-11T19:09:18.261Z,101840.84
2019-05-11T19:11:48.894Z,101845.48
2019-05-11T19:14:18.201Z,101850.97
2019-05-11T19:16:49.123Z,101860.91
2019-05-11T19:19:18.469Z,101866.94
2019-05-11T19:21:48.326Z,101872.35
2019-05-11T19:24:19.021Z,101881.37
2019-05-11T19:26:51.247Z,101885.09
2019-05-11T19:29:22.171Z,101890.08
2019-05-11T19:31:51.830Z,101896.88
2019-05-11T19:34:21.109Z,101906.38
2019-05-11T19:36:50.390Z,101914.95
2019-05-11T19:39:19.933Z,101922.18
2019-05-11T19:41:49.632Z,101923.16
2019-05-11T19:44:18.912Z,101933.52
2019-05-11T20:09:08.927Z,101943.45
2019-05-11T20:11:38.484Z,101943.45
2019-05-11T20:14:08.109Z,102000.13
2019-05-11T20:16:37.289Z,101995.80
2019-05-11T20:19:08.620Z,101999.88
2019-05-11T20:21:38.179Z,102000.00
2019-05-11T20:24:08.533Z,102003.13
2019-05-11T20:26:37.975Z,102010.80
2019-05-11T20:29:30.221Z,102004.64
2019-05-11T20:31:59.587Z,102010.11
2019-05-11T20:34:28.959Z,102010.14
2019-05-11T20:36:58.767Z,102012.45
2019-05-11T20:40:37.806Z,102011.70
2019-05-11T20:47:28.731Z,102010.39
2019-05-11T20:48:38.230Z,102013.12
2019-05-11T20:50:43.749Z,102027.01
2019-05-11T21:32:59.196Z,102034.56
2019-05-11T21:39:18.528Z,102097.44
2019-05-11T21:41:53.637Z,102098.33
2019-05-11T21:44:23.082Z,102105.41
2019-05-11T21:46:52.737Z,102109.43
2019-05-11T21:49:21.687Z,102108.14
2019-05-11T21:52:03.670Z,102110.80
2019-05-11T21:54:21.839Z,102114.37
2019-05-11T21:56:51.107Z,102120.59
2019-05-11T21:59:20.545Z,102121.03
2019-05-11T22:01:49.755Z,102119.27
2019-05-11T22:04:19.329Z,102129.00
2019-05-11T22:06:48.458Z,102141.85
2019-05-11T22:09:18.535Z,102140.97
2019-05-11T22:11:48.671Z,102153.81
2019-05-11T22:14:17.917Z,102147.18
2019-05-11T22:16:48.012Z,102154.75
2019-05-11T22:19:17.862Z,102157.42
2019-05-11T22:21:49.448Z,102158.74
2019-05-11T22:24:18.394Z,102156.13
2019-05-11T22:26:47.802Z,102160.09
2019-05-11T22:29:18.137Z,102166.28
2019-05-11T22:31:48.672Z,102165.87
2019-05-11T22:34:18.416Z,102166.73
2019-05-11T22:36:48.004Z,102165.87
2019-05-11T22:39:20.556Z,102168.97
2019-05-11T22:41:48.250Z,102175.19
2019-05-11T22:44:18.619Z,102181.35
2019-05-11T22:46:48.186Z,102188.89
2019-05-11T22:49:17.797Z,102189.33
2019-05-11T22:51:50.164Z,102191.53
2019-05-11T22:54:44.035Z,102191.55
2019-05-11T22:57:32.901Z,102193.77
2019-05-11T23:00:12.474Z,102195.08
2019-05-11T23:02:41.523Z,102199.95
2019-05-11T23:05:10.904Z,102191.09
2019-05-11T23:07:41.867Z,102199.48
2019-05-11T23:10:11.345Z,102180.94
2019-05-11T23:12:42.616Z,102204.80
2019-05-11T23:15:14.975Z,102207.45
2019-05-11T23:17:44.080Z,102212.75
2019-05-11T23:20:13.427Z,102215.38
2019-05-11T23:22:56.652Z,102213.62
2019-05-11T23:25:19.712Z,102217.13
2019-05-11T23:27:49.118Z,102212.72
2019-05-11T23:30:20.105Z,102219.33
2019-05-11T23:32:50.206Z,102232.11
2019-05-11T23:35:19.430Z,102226.39
2019-05-11T23:38:12.299Z,102224.19
2019-05-11T23:40:41.557Z,102229.03
2019-05-11T23:43:10.689Z,102235.21
2019-05-11T23:45:39.750Z,102235.61
2019-05-11T23:48:08.904Z,102240.05
2019-05-11T23:50:38.740Z,102239.59
2019-05-11T23:53:10.305Z,102240.91
2019-05-11T23:55:39.337Z,102250.18
2019-05-11T23:58:08.471Z,102250.61
